Main page
Satellite images 10-day forecastsClimateMarine weather Cyclones Lightning AirportsFAQ Newsletter About
Weather : Europe Africa North America South America Asia Australia-Oceania Others
Languages Contact

Mangalore, India

Bajpe

latitude: 12-55N, longitude: 074-53E, elevation: 102 m


METAR: missing
TAF: VOML 010900Z 0112/0218 29010KT 6000 FEW015 BECMG 0118/0119 11005KT TEMPO 0200/0203 3000 BR SCT010 BECMG 0209/0210 29005KT

Time: 17:09 (11:39 UTC)

Forecast

The report was made 2 hours and 39 minutes ago, at 09:00 UTC
Forecast valid from 01 at 12 UTC to 02 at 18 UTC
Wind 10 kt from the West/Northwest
Visibility: 6000 m
Few clouds at a height of 1500 ft
Becoming
from 01 at 18 UTC to 01 at 19 UTC
Wind 5 kt from the East/Southeast
Temporary
from 02 at 00 UTC to 02 at 03 UTC
Visibility: 3000 m
Scattered clouds at a height of 1000 ft
mist
Becoming
from 02 at 09 UTC to 02 at 10 UTC
Wind 5 kt from the West/Northwest
The information on this site is subject to a disclaimer
Weather : Europe Africa North America South America Asia Australia-Oceania Others
Satellite images 10-day forecastsClimateMarine weather Cyclones Lightning AirportsFAQ Languages Contact Newsletter About